White Bear Township, Minnesota
Current Conditions -  °F | °C
As of 2:11 PM on Thursday 30 Oct 2014 (Local Time) from K21D Reporting Station
Overcast Overcast  
Wind Chill: 44°   Ceiling: 5000
Heat Index: 46°   Visibility: 10mi
Dew Point: 36°   Wind: 6mph
Humidity: 66%   Direction: 10°N
Pressure: 30.1"   Gusts: NA
Location:  45.0958°N, 93.0043°W
Report Text: K21D 301911Z AUTO 01005KT 10SM BKN050 OVC070 08/02 A3010 RMK AO2
Loading
Personal Weather Stations






























Interactive Weather Map New forecast layout! Learn more

10-Day Weather Forecast

Advertisements
Track Severe Weather on mobile